Observations for SOUTHEND-ON-SEA, United Kingdom (EGMC)

EGMC 220950Z 21012KT CAVOK 21/14 Q1009  
EGMC 220920Z 20012KT CAVOK 20/12 Q1009  
EGMC 220850Z 20010KT CAVOK 19/12 Q1009  
EGMC 220820Z 19010KT CAVOK 18/12 Q1009  
EGMC 220750Z 19010KT CAVOK 17/12 Q1009  
EGMC 220720Z 19008KT 9000 NSC 16/11 Q1009   
EGMC 220650Z VRB03KT 7000 NSC 15/11 Q1010   
EGMC 220620Z 00000KT 4000 BR NSC 11/10 Q1010
EGMC 220550Z 00000KT 4000 R05/1300 BR NSC 12/11 Q1010   
EGMC 220520Z 00000KT 3000 R05/0900 BR MIFG NSC 09/08 Q1010  
EGMC 220450Z 09002KT 2500 R05/0800 BR MIFG NSC 09/08 Q1010  
EGMC 220420Z 00000KT 3000 BR NSC 09/08 Q1010
EGMC 220320Z 35002KT 3000 BR NSC 10/09 Q1011
EGMC 220220Z 03002KT 5000 BR -RA NSC 11/10 Q1013
EGMC 220120Z 34005KT 4000 BR -SHRA FEW008 SCT012 13/11 Q1014
EGMC 220020Z 00000KT 4000 BR NSC 13/11 Q1015
EGMC 212320Z 06005KT 8000 NSC 12/10 Q1015   
EGMC 212250Z 32003KT 7000 NSC 11/09 Q1015   
EGMC 212220Z 29005KT 6000 NSC 11/09 Q1015   
EGMC 212150Z 36003KT 7000 NSC 11/09 Q1015   
EGMC 212120Z 07003KT 7000 NSC 11/09 Q1015   
EGMC 212050Z 07002KT 7000 NSC 11/09 Q1016   
EGMC 212020Z 08004KT 7000 NSC 11/09 Q1016   
EGMC 211950Z 10005KT 7000 NSC 12/10 Q1016   
EGMC 211920Z 10005KT 7000 NSC 12/10 Q1017   
EGMC 211850Z 08006KT 9000 NSC 13/10 Q1017   
EGMC 211820Z 10008KT 9000 NSC 13/10 Q1017   
EGMC 211750Z 10010KT 9000 NSC 13/10 Q1017   
EGMC 211650Z 08008KT 9000 NSC 14/10 Q1018   
EGMC 211620Z 08008KT 9000 NSC 15/10 Q1018   
EGMC 211550Z 08008KT 9000 NSC 16/11 Q1018   
EGMC 211520Z 10008KT CAVOK 16/10 Q1019  
EGMC 211450Z 10008KT CAVOK 17/11 Q1019  
EGMC 211420Z 08008KT CAVOK 16/10 Q1019  
EGMC 211350Z 09008KT CAVOK 16/10 Q1020  
EGMC 211250Z 09011KT CAVOK 17/12 Q1020  
EGMC 211220Z 09009KT CAVOK 16/12 Q1021  
EGMC 211150Z 07010KT CAVOK 17/12 Q1021  
EGMC 211120Z 09008KT CAVOK 17/11 Q1021  
EGMC 211050Z 09007KT CAVOK 16/11 Q1022  
EGMC 211020Z 09008KT CAVOK 15/11 Q1022  
EGMC 210950Z 09008KT CAVOK 15/11 Q1022  
EGMC 210920Z 10007KT CAVOK 15/11 Q1022